Huvudsida
METAR-TAF:

METAR-TAF

Flygplatser :

Persian Gulf International Airport

Asaluyeh, Iran

latitud: 27-22-46N, longitud: 52-44-15E, höjd: 8 m

Aktuellt väderrapport

Denna rapport gjordes för 4 timmar och 31 minuter sedan, klockan 17:00 UTC
Vind 4 kt från sydväst
Temperatur 28°C
Fuktighet 79%
Tryck 1009 hPa
Sikt: 8000 m

METAR: OIBP 211700Z 23004KT 8000 NSC 28/24 Q1008 A2979

Tid: 02:01 (21:31 UTC)


TAF: saknas

Aktuella väderrapporter och prognoser från 4000 flygplatser (METAR- och TAF-rapporter).

De tillgängliga stationerna syns som gula och röda prickar på kartan.

För musen över prickarna för att se namnen på stationerna.

Klicka sedan för att få väderrapporter och prognoser.

För att ändra kartan: Klicka på de gröna knapparna med ett svart kors på för att zooma in; den gröna knappen med ett streck på för att zooma ut; eller på de gröna pilarna för angränsande kartor.


METAR-TAF: